Chibougamau, Canada
Current Conditions -  °F | °C
As of 2:00 PM on Friday 24 Oct 2014 (Local Time) from CYMT Reporting Station
Broken Clouds Broken Clouds  
Wind Chill: 50°   Ceiling: 8000
Heat Index: 50°   Visibility: 15mi
Dew Point: 25°   Wind: 3mph
Humidity: 37%   Direction: 220°SW
Pressure: 29.89"   Gusts: NA
Location:  49.91°N, 74.37°W
Report Text: CYMT 241800Z 22003KT 170V240 15SM BKN080 BKN160 10/M04 A2989 RMK AC6AC1 SLP137
Loading
Personal Weather Stations






























Interactive Weather Map
Tropical Storm Tracking
New forecast layout! Learn more

10-Day Weather Forecast

Advertisements
Track Severe Weather on mobile